Time;durP1;ratioP1;P1;durP2;ratioP2;P2;SDS_P1;SDS_P2;PMS_P1;PMS_P2;Temp;Humidity;BMP_temperature;BMP_pressure;BME280_temperature;BME280_humidity;BME280_pressure;Samples;Min_cycle;Max_cycle;Signal;HPM_P1;HPM_P2
2022/12/14 00:01:09;;;;;;;77.25;41.85;;;;;;;;;;5025986;28;20041;-73
2022/12/14 00:03:36;;;;;;;82.53;45.83;;;;;;;;;;5018220;28;20091;-73
2022/12/14 00:06:09;;;;;;;82.05;46.20;;;;;;;;;;5019270;28;20496;-73
2022/12/14 00:08:35;;;;;;;74.38;41.53;;;;;;;;;;5016380;28;20516;-73
2022/12/14 00:11:01;;;;;;;95.00;50.85;;;;;;;;;;4999174;28;20053;-73
2022/12/14 00:13:27;;;;;;;85.00;48.05;;;;;;;;;;5001948;28;20037;-73
2022/12/14 00:15:53;;;;;;;81.57;45.72;;;;;;;;;;5002800;28;20038;-73
2022/12/14 00:18:19;;;;;;;97.72;51.65;;;;;;;;;;5000642;28;20038;-72
2022/12/14 00:20:45;;;;;;;92.28;51.17;;;;;;;;;;5005217;28;20543;-73
2022/12/14 00:23:11;;;;;;;107.60;56.95;;;;;;;;;;5002566;28;20041;-73
2022/12/14 00:25:37;;;;;;;94.53;51.42;;;;;;;;;;5001261;28;20066;-73
2022/12/14 00:28:03;;;;;;;101.20;52.72;;;;;;;;;;5004239;28;20044;-73
2022/12/14 00:30:29;;;;;;;86.63;49.72;;;;;;;;;;5002747;28;20061;-73
2022/12/14 00:32:55;;;;;;;81.25;46.30;;;;;;;;;;5005680;28;20474;-72
2022/12/14 00:35:22;;;;;;;90.32;50.63;;;;;;;;;;4999778;28;20152;-73
2022/12/14 00:37:48;;;;;;;97.03;56.28;;;;;;;;;;4998212;28;20037;-73
2022/12/14 00:40:14;;;;;;;100.35;57.42;;;;;;;;;;5000922;28;20030;-73
2022/12/14 00:42:40;;;;;;;93.75;52.97;;;;;;;;;;5004994;28;20030;-72
2022/12/14 00:45:07;;;;;;;91.03;47.00;;;;;;;;;;4995507;28;20034;-72
2022/12/14 00:47:33;;;;;;;94.93;51.60;;;;;;;;;;5005926;28;20034;-73
2022/12/14 00:49:59;;;;;;;90.20;48.50;;;;;;;;;;4999951;28;20025;-73
2022/12/14 00:52:26;;;;;;;82.45;45.05;;;;;;;;;;5003074;28;20037;-73
2022/12/14 00:54:52;;;;;;;94.43;50.45;;;;;;;;;;5002915;28;20029;-73
2022/12/14 00:57:18;;;;;;;92.22;52.53;;;;;;;;;;4999249;28;20040;-73
2022/12/14 00:59:44;;;;;;;79.70;46.10;;;;;;;;;;4998178;28;20488;-73
2022/12/14 01:02:10;;;;;;;84.57;45.08;;;;;;;;;;5001877;28;20133;-73
2022/12/14 01:04:36;;;;;;;94.07;54.08;;;;;;;;;;5002306;28;20708;-73
2022/12/14 01:07:02;;;;;;;88.82;47.95;;;;;;;;;;5006287;28;20072;-73
2022/12/14 01:09:28;;;;;;;90.85;48.83;;;;;;;;;;5008356;28;20475;-73
2022/12/14 01:11:54;;;;;;;84.57;46.85;;;;;;;;;;5026003;28;20036;-73
2022/12/14 01:14:20;;;;;;;89.35;48.17;;;;;;;;;;5021393;28;20029;-73
2022/12/14 01:16:47;;;;;;;98.82;54.20;;;;;;;;;;5026579;28;20116;-73
2022/12/14 01:19:13;;;;;;;86.35;48.28;;;;;;;;;;5023964;28;20688;-73
2022/12/14 01:21:39;;;;;;;86.20;43.70;;;;;;;;;;5026810;28;20121;-73
2022/12/14 01:24:06;;;;;;;89.45;47.10;;;;;;;;;;5006839;28;20152;-73
2022/12/14 01:26:35;;;;;;;99.72;53.53;;;;;;;;;;5022156;28;20048;-73
2022/12/14 01:29:02;;;;;;;91.95;51.03;;;;;;;;;;5026085;28;20131;-73
2022/12/14 01:31:31;;;;;;;89.75;51.13;;;;;;;;;;5024928;28;20038;-73
2022/12/14 01:33:57;;;;;;;94.47;51.72;;;;;;;;;;5025676;28;20055;-72
2022/12/14 01:36:24;;;;;;;77.45;44.22;;;;;;;;;;5024904;28;20100;-73
2022/12/14 01:38:55;;;;;;;88.43;46.22;;;;;;;;;;5023143;28;20037;-73
2022/12/14 01:41:24;;;;;;;121.70;61.90;;;;;;;;;;5027319;28;20037;-73
2022/12/14 01:43:54;;;;;;;97.45;51.97;;;;;;;;;;5027459;28;20029;-73
2022/12/14 01:46:24;;;;;;;98.18;51.85;;;;;;;;;;5023491;28;20038;-73
2022/12/14 01:48:52;;;;;;;116.32;62.03;;;;;;;;;;5028547;28;20040;-73
2022/12/14 01:51:18;;;;;;;99.63;49.47;;;;;;;;;;5019229;28;20033;-73
2022/12/14 01:53:44;;;;;;;93.38;49.78;;;;;;;;;;5018655;28;20512;-72
2022/12/14 01:56:10;;;;;;;86.07;46.72;;;;;;;;;;5020937;28;20481;-73
2022/12/14 01:58:37;;;;;;;84.88;47.95;;;;;;;;;;5028166;28;20061;-73
2022/12/14 02:01:03;;;;;;;101.68;53.35;;;;;;;;;;5024094;28;20033;-73
2022/12/14 02:03:31;;;;;;;87.45;48.88;;;;;;;;;;5027873;28;20049;-73
2022/12/14 02:06:02;;;;;;;91.07;46.13;;;;;;;;;;5021421;28;20060;-73
2022/12/14 02:08:29;;;;;;;86.13;47.08;;;;;;;;;;5021990;28;20049;-73
2022/12/14 02:10:55;;;;;;;87.85;49.42;;;;;;;;;;5018440;28;20068;-73
2022/12/14 02:13:35;;;;;;;84.90;46.13;;;;;;;;;;5024422;28;20079;-73
2022/12/14 02:16:01;;;;;;;86.75;48.30;;;;;;;;;;5022338;28;20033;-73
2022/12/14 02:18:28;;;;;;;89.05;49.10;;;;;;;;;;5024253;28;20052;-72
2022/12/14 02:21:12;;;;;;;90.13;47.85;;;;;;;;;;5018665;28;20041;-73
2022/12/14 02:23:38;;;;;;;89.13;50.10;;;;;;;;;;5026531;28;20037;-72
2022/12/14 02:26:13;;;;;;;103.80;56.08;;;;;;;;;;5026182;28;20044;-73
2022/12/14 02:28:45;;;;;;;93.97;51.90;;;;;;;;;;5023594;28;20801;-73
2022/12/14 02:31:21;;;;;;;91.00;47.60;;;;;;;;;;5022244;28;20033;-73
2022/12/14 02:33:47;;;;;;;98.57;51.92;;;;;;;;;;5024845;28;20537;-73
2022/12/14 02:36:17;;;;;;;100.28;54.20;;;;;;;;;;5026249;28;20037;-73
2022/12/14 02:38:46;;;;;;;85.22;49.47;;;;;;;;;;5025224;28;20465;-73
2022/12/14 02:41:21;;;;;;;84.20;47.90;;;;;;;;;;5021439;28;20619;-72
2022/12/14 02:44:06;;;;;;;93.80;50.70;;;;;;;;;;5002240;28;20415;-73
2022/12/14 02:46:50;;;;;;;92.72;50.67;;;;;;;;;;5017162;28;20068;-73
2022/12/14 02:49:25;;;;;;;93.93;52.42;;;;;;;;;;5025532;28;20033;-72
2022/12/14 02:51:57;;;;;;;83.80;45.85;;;;;;;;;;5017114;28;20021;-73
2022/12/14 02:54:36;;;;;;;84.88;47.92;;;;;;;;;;5018233;28;20029;-73
2022/12/14 02:57:08;;;;;;;86.07;47.63;;;;;;;;;;5023208;28;20041;-73
2022/12/14 02:59:35;;;;;;;78.60;43.75;;;;;;;;;;5020874;28;20061;-72
2022/12/14 03:02:02;;;;;;;89.22;45.63;;;;;;;;;;5025630;28;20045;-72
2022/12/14 03:04:28;;;;;;;78.80;43.13;;;;;;;;;;5022567;28;20443;-73
2022/12/14 03:07:15;;;;;;;87.47;50.00;;;;;;;;;;5024881;28;20033;-73
2022/12/14 03:09:41;;;;;;;86.10;47.95;;;;;;;;;;5020571;28;20115;-73
2022/12/14 03:12:10;;;;;;;103.75;54.47;;;;;;;;;;5021292;28;20064;-73
2022/12/14 03:14:39;;;;;;;95.43;51.70;;;;;;;;;;5019902;28;20064;-73
2022/12/14 03:17:15;;;;;;;97.70;50.00;;;;;;;;;;5001520;28;20033;-73
2022/12/14 03:19:44;;;;;;;95.10;50.60;;;;;;;;;;5018871;28;20130;-72
2022/12/14 03:22:12;;;;;;;92.07;48.75;;;;;;;;;;5022953;28;20029;-73
2022/12/14 03:24:41;;;;;;;86.68;46.08;;;;;;;;;;5017942;28;20652;-73
2022/12/14 03:27:16;;;;;;;95.97;51.35;;;;;;;;;;5026339;28;20047;-73
2022/12/14 03:29:45;;;;;;;95.90;50.60;;;;;;;;;;5018582;28;20045;-72
2022/12/14 03:32:14;;;;;;;76.43;43.00;;;;;;;;;;5023723;28;20032;-72
2022/12/14 03:34:42;;;;;;;90.72;46.80;;;;;;;;;;5021577;28;20726;-73
2022/12/14 03:37:14;;;;;;;81.88;45.90;;;;;;;;;;5024378;28;20443;-72
2022/12/14 03:39:42;;;;;;;88.80;46.47;;;;;;;;;;5022601;28;20052;-72
2022/12/14 03:42:20;;;;;;;84.72;44.00;;;;;;;;;;5012440;28;20025;-72
2022/12/14 03:44:49;;;;;;;92.22;49.35;;;;;;;;;;5021881;28;20041;-73
2022/12/14 03:47:18;;;;;;;90.70;51.03;;;;;;;;;;5025809;28;20075;-72
2022/12/14 03:49:50;;;;;;;88.32;45.67;;;;;;;;;;5025612;28;20069;-72
2022/12/14 03:52:25;;;;;;;106.40;55.08;;;;;;;;;;5020804;28;20052;-72
2022/12/14 03:55:00;;;;;;;102.38;52.67;;;;;;;;;;5021537;28;20109;-73
2022/12/14 03:57:28;;;;;;;79.93;43.75;;;;;;;;;;5020010;28;20048;-73
2022/12/14 04:00:02;;;;;;;98.32;51.25;;;;;;;;;;5017063;28;20042;-73
2022/12/14 04:02:32;;;;;;;95.45;50.85;;;;;;;;;;5023135;28;20360;-73
2022/12/14 04:05:03;;;;;;;90.15;46.90;;;;;;;;;;5021924;28;20037;-73
2022/12/14 04:07:35;;;;;;;95.63;48.42;;;;;;;;;;5022185;28;20041;-73
2022/12/14 04:10:03;;;;;;;83.20;42.78;;;;;;;;;;5022683;28;20378;-72
2022/12/14 04:20:57;;;;;;;87.13;45.95;;;;;;;;;;5019922;28;20494;-73
2022/12/14 04:26:19;;;;;;;85.93;45.15;;;;;;;;;;5014502;28;20129;-72
2022/12/14 04:31:33;;;;;;;102.70;53.65;;;;;;;;;;5024939;28;20088;-72
2022/12/14 04:34:02;;;;;;;85.03;47.90;;;;;;;;;;5019494;28;20049;-73
2022/12/14 04:36:31;;;;;;;98.53;47.17;;;;;;;;;;5020354;28;20040;-72
2022/12/14 04:39:03;;;;;;;100.97;52.28;;;;;;;;;;5025972;28;20030;-72
2022/12/14 04:41:32;;;;;;;94.22;52.75;;;;;;;;;;5026185;28;20033;-72
2022/12/14 04:43:59;;;;;;;95.63;47.88;;;;;;;;;;5021169;28;20033;-72
2022/12/14 04:46:27;;;;;;;95.65;50.33;;;;;;;;;;5026965;28;20037;-72
2022/12/14 04:49:12;;;;;;;103.95;53.50;;;;;;;;;;5028285;28;20559;-72
2022/12/14 04:51:44;;;;;;;110.43;52.85;;;;;;;;;;5025363;28;20030;-72
2022/12/14 04:54:22;;;;;;;124.88;61.03;;;;;;;;;;5024625;28;20039;-72
2022/12/14 04:56:54;;;;;;;104.10;52.72;;;;;;;;;;5025260;28;20029;-72
2022/12/14 04:59:21;;;;;;;102.13;53.97;;;;;;;;;;5018820;28;20096;-72
2022/12/14 05:01:50;;;;;;;90.40;47.38;;;;;;;;;;5028031;28;20167;-72
2022/12/14 05:04:16;;;;;;;91.18;47.60;;;;;;;;;;5019032;28;20122;-72
2022/12/14 05:06:54;;;;;;;93.32;49.08;;;;;;;;;;5026950;28;20112;-72
2022/12/14 05:09:23;;;;;;;113.50;57.22;;;;;;;;;;5021130;28;20084;-72
2022/12/14 05:11:55;;;;;;;90.60;47.00;;;;;;;;;;5027140;28;20026;-72
2022/12/14 05:14:42;;;;;;;84.53;45.05;;;;;;;;;;5026897;28;20083;-72
2022/12/14 05:17:08;;;;;;;89.78;47.25;;;;;;;;;;5024756;28;20068;-72
2022/12/14 05:19:34;;;;;;;89.43;48.10;;;;;;;;;;5020787;28;20037;-73
2022/12/14 05:22:05;;;;;;;90.57;51.10;;;;;;;;;;5026835;28;20029;-72
2022/12/14 05:24:31;;;;;;;88.95;46.50;;;;;;;;;;5024044;28;20045;-72
2022/12/14 05:26:57;;;;;;;96.97;47.00;;;;;;;;;;5025576;28;20042;-72
2022/12/14 05:29:23;;;;;;;87.65;46.53;;;;;;;;;;5020418;28;20074;-72
2022/12/14 05:31:50;;;;;;;91.45;49.72;;;;;;;;;;5020124;28;20638;-72
2022/12/14 05:34:16;;;;;;;142.32;65.22;;;;;;;;;;5024835;28;20062;-72
2022/12/14 05:36:42;;;;;;;146.65;70.88;;;;;;;;;;5022534;28;20704;-72
2022/12/14 05:39:08;;;;;;;122.40;64.90;;;;;;;;;;5024521;28;20048;-72
2022/12/14 05:41:34;;;;;;;104.13;56.65;;;;;;;;;;5023489;28;20036;-72
2022/12/14 05:44:00;;;;;;;111.57;55.58;;;;;;;;;;5024482;28;20046;-72
2022/12/14 05:46:26;;;;;;;86.60;44.30;;;;;;;;;;5016377;28;20479;-72
2022/12/14 05:48:53;;;;;;;85.63;47.92;;;;;;;;;;5025182;28;20473;-72
2022/12/14 05:51:19;;;;;;;91.18;49.63;;;;;;;;;;5023665;28;20421;-72
2022/12/14 05:53:45;;;;;;;98.80;55.97;;;;;;;;;;5028314;28;20083;-73
2022/12/14 05:56:11;;;;;;;118.80;66.03;;;;;;;;;;5024985;28;20128;-72
2022/12/14 05:58:38;;;;;;;121.30;65.97;;;;;;;;;;5027217;28;20052;-72
2022/12/14 06:01:05;;;;;;;117.18;59.58;;;;;;;;;;5016406;28;20041;-72
2022/12/14 06:03:31;;;;;;;104.93;54.50;;;;;;;;;;5022824;28;20033;-72
2022/12/14 06:06:01;;;;;;;102.50;51.08;;;;;;;;;;5023842;28;20369;-72
2022/12/14 06:08:30;;;;;;;94.20;48.17;;;;;;;;;;5025585;28;20624;-72
2022/12/14 06:11:01;;;;;;;96.07;52.88;;;;;;;;;;5000987;28;20078;-72
2022/12/14 06:13:27;;;;;;;110.28;52.90;;;;;;;;;;5004619;28;20045;-72
2022/12/14 06:15:53;;;;;;;87.90;46.83;;;;;;;;;;5000566;28;20027;-72
2022/12/14 06:18:18;;;;;;;101.50;54.00;;;;;;;;;;5003737;28;20038;-72
2022/12/14 06:20:44;;;;;;;90.97;48.65;;;;;;;;;;5000811;28;20062;-72
2022/12/14 06:23:10;;;;;;;101.57;52.25;;;;;;;;;;4997421;28;20637;-72
2022/12/14 06:25:36;;;;;;;90.88;46.83;;;;;;;;;;5000478;28;20065;-73
2022/12/14 06:28:02;;;;;;;90.85;46.95;;;;;;;;;;4999736;28;20026;-72
2022/12/14 06:30:28;;;;;;;91.38;49.47;;;;;;;;;;5001351;28;20026;-72
2022/12/14 06:32:54;;;;;;;87.88;47.25;;;;;;;;;;5001568;28;20072;-72
2022/12/14 06:35:20;;;;;;;105.22;54.47;;;;;;;;;;4997737;28;20034;-72
2022/12/14 06:37:46;;;;;;;105.20;58.25;;;;;;;;;;4999143;28;20046;-72
2022/12/14 06:40:12;;;;;;;100.60;54.28;;;;;;;;;;4988103;28;20065;-72
2022/12/14 06:42:38;;;;;;;97.13;50.17;;;;;;;;;;5000955;28;20037;-72
2022/12/14 06:45:05;;;;;;;91.53;48.22;;;;;;;;;;5000096;28;20100;-72
2022/12/14 06:47:31;;;;;;;111.25;56.35;;;;;;;;;;5001576;28;20030;-72
2022/12/14 06:49:57;;;;;;;115.50;59.83;;;;;;;;;;4996289;28;20034;-73
2022/12/14 06:52:23;;;;;;;105.90;58.55;;;;;;;;;;4999948;28;20045;-73
2022/12/14 06:54:49;;;;;;;111.30;58.40;;;;;;;;;;4998905;28;20476;-72
2022/12/14 06:57:15;;;;;;;99.45;56.22;;;;;;;;;;5000056;28;20108;-72
2022/12/14 06:59:41;;;;;;;104.80;54.88;;;;;;;;;;5001608;28;20034;-72
2022/12/14 07:02:08;;;;;;;91.00;49.00;;;;;;;;;;5000603;28;20038;-72
2022/12/14 07:04:34;;;;;;;94.22;51.53;;;;;;;;;;4998698;28;20041;-72
2022/12/14 07:07:00;;;;;;;87.18;46.00;;;;;;;;;;5001541;28;20061;-72
2022/12/14 07:09:26;;;;;;;126.28;62.80;;;;;;;;;;5002158;28;20049;-71
2022/12/14 07:11:52;;;;;;;102.97;54.88;;;;;;;;;;5022151;28;20048;-72
2022/12/14 07:14:18;;;;;;;95.70;54.25;;;;;;;;;;5017755;28;20041;-71
2022/12/14 07:16:44;;;;;;;105.72;58.30;;;;;;;;;;5019605;28;20037;-72
2022/12/14 07:19:10;;;;;;;52.35;28.17;;;;;;;;;;5020605;28;20072;-72
2022/12/14 07:21:36;;;;;;;126.38;61.03;;;;;;;;;;5022064;28;20035;-72
2022/12/14 07:24:02;;;;;;;90.15;49.33;;;;;;;;;;5019497;28;20034;-71
2022/12/14 07:26:29;;;;;;;111.18;54.47;;;;;;;;;;5017884;28;20033;-72
2022/12/14 07:28:57;;;;;;;99.35;55.60;;;;;;;;;;5018787;28;20025;-72
2022/12/14 07:31:25;;;;;;;87.43;48.28;;;;;;;;;;5020652;28;20115;-72
2022/12/14 07:33:55;;;;;;;87.97;42.65;;;;;;;;;;5022392;28;20100;-72
2022/12/14 07:36:21;;;;;;;96.28;49.38;;;;;;;;;;5021728;28;20037;-72
2022/12/14 07:38:49;;;;;;;86.20;44.30;;;;;;;;;;5022644;28;20044;-73
2022/12/14 07:41:18;;;;;;;99.68;50.20;;;;;;;;;;5022151;28;20075;-72
2022/12/14 07:43:44;;;;;;;92.85;47.70;;;;;;;;;;5023192;28;20037;-72
2022/12/14 07:46:12;;;;;;;89.30;48.70;;;;;;;;;;5021175;28;20037;-72
2022/12/14 07:48:38;;;;;;;78.65;45.83;;;;;;;;;;5016701;28;20071;-72
2022/12/14 07:51:06;;;;;;;91.50;46.53;;;;;;;;;;5021741;28;20025;-72
2022/12/14 07:53:32;;;;;;;71.47;40.15;;;;;;;;;;5017519;28;20087;-72
2022/12/14 07:56:05;;;;;;;75.00;39.80;;;;;;;;;;5021134;28;20083;-72
2022/12/14 07:58:32;;;;;;;87.53;42.90;;;;;;;;;;5022824;28;20029;-72
2022/12/14 08:01:28;;;;;;;78.80;44.42;;;;;;;;;;5022249;28;20076;-72
2022/12/14 08:03:53;;;;;;;70.60;41.20;;;;;;;;;;5005499;28;20507;-72
2022/12/14 08:06:20;;;;;;;76.80;41.75;;;;;;;;;;5021883;28;20037;-72
2022/12/14 08:08:47;;;;;;;68.22;38.60;;;;;;;;;;5020662;28;20033;-72
2022/12/14 08:11:13;;;;;;;67.32;38.70;;;;;;;;;;5016741;28;20544;-72
2022/12/14 08:13:39;;;;;;;86.05;48.55;;;;;;;;;;5001954;28;20029;-72
2022/12/14 08:16:07;;;;;;;83.65;46.90;;;;;;;;;;5021672;28;20029;-73
2022/12/14 08:18:33;;;;;;;84.30;46.03;;;;;;;;;;5020157;28;20036;-72
2022/12/14 08:21:00;;;;;;;87.68;50.22;;;;;;;;;;5020958;28;20457;-72
2022/12/14 08:23:26;;;;;;;86.35;47.03;;;;;;;;;;5022963;28;20092;-72
2022/12/14 08:25:53;;;;;;;85.95;53.65;;;;;;;;;;5017801;28;20080;-72
2022/12/14 08:28:19;;;;;;;85.95;46.95;;;;;;;;;;5021684;28;20099;-72
2022/12/14 08:30:45;;;;;;;87.90;45.75;;;;;;;;;;5020148;28;20481;-72
2022/12/14 08:33:11;;;;;;;78.20;43.08;;;;;;;;;;5021050;28;20037;-72
2022/12/14 08:35:37;;;;;;;62.78;38.22;;;;;;;;;;5023412;28;20033;-72
2022/12/14 08:38:03;;;;;;;55.70;29.85;;;;;;;;;;5023931;28;20613;-72
2022/12/14 08:40:30;;;;;;;60.13;35.67;;;;;;;;;;5021043;28;20057;-72
2022/12/14 08:42:56;;;;;;;52.88;30.35;;;;;;;;;;5013786;28;20666;-72
2022/12/14 08:45:22;;;;;;;64.45;31.85;;;;;;;;;;5020461;28;20037;-72
2022/12/14 08:47:48;;;;;;;62.67;32.30;;;;;;;;;;5017562;28;20112;-71
2022/12/14 08:50:14;;;;;;;63.15;33.72;;;;;;;;;;5019262;28;20484;-71
2022/12/14 08:52:40;;;;;;;60.70;34.08;;;;;;;;;;5019367;28;20030;-71
2022/12/14 08:55:07;;;;;;;66.90;38.88;;;;;;;;;;5022984;28;20597;-72
2022/12/14 08:57:33;;;;;;;69.70;39.03;;;;;;;;;;5016970;28;20029;-71
2022/12/14 08:59:59;;;;;;;67.22;35.92;;;;;;;;;;5019433;28;20510;-72
2022/12/14 09:02:25;;;;;;;75.05;42.90;;;;;;;;;;5020264;28;20056;-72
2022/12/14 09:04:51;;;;;;;43.08;24.67;;;;;;;;;;5017259;28;20037;-72
2022/12/14 09:07:17;;;;;;;34.85;18.15;;;;;;;;;;5018899;28;20045;-71
2022/12/14 09:09:43;;;;;;;50.88;29.23;;;;;;;;;;5022122;28;20127;-73
2022/12/14 09:12:09;;;;;;;60.50;36.22;;;;;;;;;;5019433;28;20037;-72
2022/12/14 09:14:35;;;;;;;46.65;28.42;;;;;;;;;;5022146;28;20828;-73
2022/12/14 09:17:01;;;;;;;41.17;24.00;;;;;;;;;;5020829;28;20061;-73
2022/12/14 09:19:28;;;;;;;34.65;20.00;;;;;;;;;;5020239;28;20037;-72
2022/12/14 09:21:54;;;;;;;50.00;32.60;;;;;;;;;;5019998;28;20071;-73
2022/12/14 09:24:23;;;;;;;39.05;23.13;;;;;;;;;;5022935;28;20041;-72
2022/12/14 09:26:49;;;;;;;41.30;23.90;;;;;;;;;;5025677;28;20713;-73
2022/12/14 09:29:16;;;;;;;40.58;22.08;;;;;;;;;;5024915;28;20108;-73
2022/12/14 09:31:42;;;;;;;46.42;27.58;;;;;;;;;;5024441;28;20057;-73
2022/12/14 09:34:08;;;;;;;65.97;41.83;;;;;;;;;;5022309;28;20061;-73
2022/12/14 09:36:34;;;;;;;64.57;43.72;;;;;;;;;;5022426;28;20495;-72
2022/12/14 09:39:01;;;;;;;57.00;37.58;;;;;;;;;;5025570;28;20033;-72
2022/12/14 09:41:29;;;;;;;54.00;33.63;;;;;;;;;;5022189;28;20037;-72
2022/12/14 09:44:13;;;;;;;55.22;34.03;;;;;;;;;;5024262;28;20563;-71
2022/12/14 09:46:42;;;;;;;45.97;25.67;;;;;;;;;;5024597;28;20040;-72
2022/12/14 09:49:35;;;;;;;43.72;24.55;;;;;;;;;;5025213;28;20029;-72
2022/12/14 09:52:03;;;;;;;46.78;26.42;;;;;;;;;;5020833;28;20038;-72
2022/12/14 09:54:30;;;;;;;56.42;24.77;;;;;;;;;;5025248;28;20040;-73
2022/12/14 09:56:58;;;;;;;39.80;21.92;;;;;;;;;;5023622;28;20033;-73
2022/12/14 09:59:26;;;;;;;36.83;19.10;;;;;;;;;;5024931;28;20041;-73
2022/12/14 10:02:04;;;;;;;34.97;19.40;;;;;;;;;;5023705;28;20468;-73
2022/12/14 10:04:40;;;;;;;34.83;19.60;;;;;;;;;;5024743;28;20033;-73
2022/12/14 10:07:06;;;;;;;37.08;19.63;;;;;;;;;;5023412;28;20033;-72
2022/12/14 10:09:31;;;;;;;33.28;19.92;;;;;;;;;;5016481;28;20053;-73
2022/12/14 10:12:14;;;;;;;36.08;19.83;;;;;;;;;;5000723;28;20090;-73
2022/12/14 10:14:52;;;;;;;61.13;30.60;;;;;;;;;;5005341;28;20459;-74
2022/12/14 10:17:28;;;;;;;65.05;30.75;;;;;;;;;;5002503;28;20037;-73
2022/12/14 10:20:03;;;;;;;44.75;22.52;;;;;;;;;;5002965;28;20029;-73
2022/12/14 10:22:32;;;;;;;51.03;26.25;;;;;;;;;;5003990;28;20034;-73
2022/12/14 10:25:06;;;;;;;47.03;23.20;;;;;;;;;;5005684;28;20511;-73
2022/12/14 10:27:33;;;;;;;63.10;28.58;;;;;;;;;;5003222;28;20045;-73
2022/12/14 10:30:01;;;;;;;40.53;21.13;;;;;;;;;;5004003;28;20022;-73
2022/12/14 10:32:33;;;;;;;49.72;24.58;;;;;;;;;;5005167;28;20033;-73
2022/12/14 10:35:07;;;;;;;47.97;23.05;;;;;;;;;;5001788;28;20030;-73
2022/12/14 10:37:39;;;;;;;48.88;23.48;;;;;;;;;;5003934;28;20041;-73
2022/12/14 10:40:20;;;;;;;54.63;27.23;;;;;;;;;;5004302;28;20503;-73
2022/12/14 10:42:58;;;;;;;54.83;30.63;;;;;;;;;;5003825;28;20030;-72
2022/12/14 10:45:24;;;;;;;49.10;28.17;;;;;;;;;;5001820;28;20164;-72
2022/12/14 10:47:52;;;;;;;71.80;43.83;;;;;;;;;;5002059;28;20037;-72
2022/12/14 10:50:21;;;;;;;60.00;35.13;;;;;;;;;;5002283;28;20034;-73
2022/12/14 10:52:49;;;;;;;76.97;48.15;;;;;;;;;;5002396;28;20030;-74
2022/12/14 10:55:29;;;;;;;53.50;33.58;;;;;;;;;;5004086;28;20034;-72
2022/12/14 10:57:55;;;;;;;50.83;26.70;;;;;;;;;;5001764;28;20465;-73
2022/12/14 11:00:21;;;;;;;46.38;26.88;;;;;;;;;;5002859;28;20112;-73
2022/12/14 11:02:48;;;;;;;43.20;24.67;;;;;;;;;;5004337;28;20033;-73
2022/12/14 11:05:17;;;;;;;43.80;24.83;;;;;;;;;;5004216;28;20437;-72
2022/12/14 11:07:44;;;;;;;53.40;28.90;;;;;;;;;;5003644;28;20764;-73
2022/12/14 11:10:15;;;;;;;50.83;28.00;;;;;;;;;;5011921;28;20068;-74
2022/12/14 11:12:41;;;;;;;48.20;30.02;;;;;;;;;;5022043;28;20040;-72
2022/12/14 11:15:22;;;;;;;43.00;26.95;;;;;;;;;;5023637;28;20048;-73
2022/12/14 11:17:58;;;;;;;49.15;30.77;;;;;;;;;;5021412;28;20056;-73
2022/12/14 11:20:24;;;;;;;42.67;27.35;;;;;;;;;;5021643;28;20604;-73
2022/12/14 11:22:53;;;;;;;50.05;28.45;;;;;;;;;;5012823;28;20037;-73
2022/12/14 11:25:40;;;;;;;41.42;24.85;;;;;;;;;;5017078;28;20041;-73
2022/12/14 11:28:15;;;;;;;46.97;31.63;;;;;;;;;;5009395;28;20535;-73
2022/12/14 11:30:51;;;;;;;56.05;36.28;;;;;;;;;;5020787;28;20408;-73
2022/12/14 11:33:18;;;;;;;60.15;36.15;;;;;;;;;;5005948;28;20115;-73
2022/12/14 11:35:51;;;;;;;64.55;40.95;;;;;;;;;;5023915;28;20043;-73
2022/12/14 11:38:17;;;;;;;48.45;30.30;;;;;;;;;;5021125;28;20083;-73
2022/12/14 11:40:44;;;;;;;50.35;29.77;;;;;;;;;;5022782;28;20117;-74
2022/12/14 11:43:21;;;;;;;52.47;32.33;;;;;;;;;;5022395;28;20071;-73
2022/12/14 11:45:50;;;;;;;45.53;26.92;;;;;;;;;;5020503;28;20029;-73
2022/12/14 11:48:18;;;;;;;51.58;33.85;;;;;;;;;;5021580;28;20037;-73
2022/12/14 11:50:45;;;;;;;56.92;33.67;;;;;;;;;;5022949;28;20025;-73
2022/12/14 11:53:13;;;;;;;54.40;33.58;;;;;;;;;;5020905;28;20029;-73
2022/12/14 11:55:42;;;;;;;50.13;31.15;;;;;;;;;;5002475;28;20025;-72
2022/12/14 11:58:38;;;;;;;50.72;30.90;;;;;;;;;;5020141;28;20038;-73
2022/12/14 12:01:05;;;;;;;44.85;24.52;;;;;;;;;;5010278;28;20045;-73
2022/12/14 12:03:31;;;;;;;43.83;25.50;;;;;;;;;;5013520;28;20107;-73
2022/12/14 12:06:02;;;;;;;43.25;26.85;;;;;;;;;;5018721;28;20037;-73
2022/12/14 12:08:31;;;;;;;48.10;28.42;;;;;;;;;;5017277;28;20088;-73
2022/12/14 12:10:58;;;;;;;57.03;34.35;;;;;;;;;;5022574;28;20073;-73
2022/12/14 12:13:27;;;;;;;55.33;31.15;;;;;;;;;;5022783;28;20032;-73
2022/12/14 12:15:58;;;;;;;68.25;38.75;;;;;;;;;;5014587;28;20030;-73
2022/12/14 12:18:36;;;;;;;53.45;32.38;;;;;;;;;;5020174;28;20125;-73
2022/12/14 12:21:28;;;;;;;51.75;33.90;;;;;;;;;;5020651;28;20037;-73
2022/12/14 12:24:04;;;;;;;63.47;41.03;;;;;;;;;;5017994;28;20571;-73
2022/12/14 12:26:30;;;;;;;71.30;42.72;;;;;;;;;;5020582;28;20037;-71
2022/12/14 12:29:05;;;;;;;66.13;38.28;;;;;;;;;;5021556;28;20041;-72
2022/12/14 12:31:34;;;;;;;63.10;48.05;;;;;;;;;;5022504;28;20105;-72
2022/12/14 12:34:10;;;;;;;73.97;50.70;;;;;;;;;;5017635;28;20788;-72
2022/12/14 12:36:37;;;;;;;60.83;34.92;;;;;;;;;;5021449;28;20452;-73
2022/12/14 12:39:11;;;;;;;52.28;32.40;;;;;;;;;;5023232;28;20037;-72
2022/12/14 12:41:37;;;;;;;58.55;33.50;;;;;;;;;;5022671;28;20033;-72
2022/12/14 12:44:10;;;;;;;53.92;32.33;;;;;;;;;;5021453;28;20029;-72
2022/12/14 12:46:44;;;;;;;71.03;43.22;;;;;;;;;;5021232;28;20128;-73
2022/12/14 12:49:16;;;;;;;51.60;30.67;;;;;;;;;;5021886;28;20482;-73
2022/12/14 12:51:48;;;;;;;78.43;42.65;;;;;;;;;;5018800;28;20025;-73
2022/12/14 12:54:20;;;;;;;76.00;44.85;;;;;;;;;;5022635;28;20030;-73
2022/12/14 12:56:50;;;;;;;60.22;37.05;;;;;;;;;;5021562;28;20737;-74
2022/12/14 12:59:18;;;;;;;66.53;38.00;;;;;;;;;;5021133;28;20033;-73
2022/12/14 13:01:46;;;;;;;60.17;38.15;;;;;;;;;;5025231;28;20207;-73
2022/12/14 13:04:15;;;;;;;63.92;36.25;;;;;;;;;;5024031;28;20045;-73
2022/12/14 13:06:48;;;;;;;82.68;46.00;;;;;;;;;;5026075;28;20467;-73
2022/12/14 13:09:20;;;;;;;75.95;48.08;;;;;;;;;;5019821;28;20053;-73
2022/12/14 13:11:47;;;;;;;85.55;51.38;;;;;;;;;;5004157;28;20088;-74
2022/12/14 13:14:13;;;;;;;77.80;48.53;;;;;;;;;;5001534;28;20030;-73
2022/12/14 13:16:40;;;;;;;87.03;54.00;;;;;;;;;;5003420;28;20878;-73
2022/12/14 13:19:12;;;;;;;66.95;42.33;;;;;;;;;;5002999;28;20140;-73
2022/12/14 13:21:43;;;;;;;51.63;34.33;;;;;;;;;;5004672;28;20038;-73
2022/12/14 13:24:14;;;;;;;66.95;38.60;;;;;;;;;;4998938;28;20790;-73
2022/12/14 13:26:46;;;;;;;53.08;31.55;;;;;;;;;;5004136;28;20042;-73
2022/12/14 13:29:41;;;;;;;62.07;39.13;;;;;;;;;;5005802;28;20449;-72
2022/12/14 13:32:33;;;;;;;89.30;51.90;;;;;;;;;;4939792;28;20144;-72
2022/12/14 13:34:59;;;;;;;57.38;34.38;;;;;;;;;;4996882;28;20482;-73
2022/12/14 13:37:31;;;;;;;61.90;39.30;;;;;;;;;;5005809;28;20036;-73
2022/12/14 13:40:03;;;;;;;86.05;55.97;;;;;;;;;;5004698;28;20037;-73
2022/12/14 13:42:39;;;;;;;52.67;34.85;;;;;;;;;;5001914;28;20034;-73
2022/12/14 13:45:14;;;;;;;63.08;42.25;;;;;;;;;;5006985;28;20037;-73
2022/12/14 13:47:40;;;;;;;55.70;35.38;;;;;;;;;;4996587;28;20030;-73
2022/12/14 13:50:07;;;;;;;57.22;35.05;;;;;;;;;;5002933;28;20044;-73
2022/12/14 13:52:38;;;;;;;55.60;35.97;;;;;;;;;;5003873;28;20030;-73
2022/12/14 13:55:18;;;;;;;61.28;40.45;;;;;;;;;;5002557;28;20065;-73
2022/12/14 13:57:44;;;;;;;48.17;31.80;;;;;;;;;;5000543;28;20076;-73
2022/12/14 14:00:21;;;;;;;53.28;33.55;;;;;;;;;;4999539;28;20416;-73
2022/12/14 14:02:53;;;;;;;59.22;36.75;;;;;;;;;;5000349;28;20735;-73
2022/12/14 14:05:22;;;;;;;50.88;35.47;;;;;;;;;;5004745;28;20048;-73
2022/12/14 14:07:56;;;;;;;29.60;20.70;;;;;;;;;;4999820;28;20030;-72
2022/12/14 14:10:42;;;;;;;34.05;23.60;;;;;;;;;;5014903;28;20061;-72
2022/12/14 14:13:28;;;;;;;41.92;26.08;;;;;;;;;;5020424;28;20045;-73
2022/12/14 14:16:02;;;;;;;38.13;25.77;;;;;;;;;;5018015;28;20053;-73
2022/12/14 14:18:30;;;;;;;31.25;20.02;;;;;;;;;;5020827;28;20148;-73
2022/12/14 14:21:11;;;;;;;43.03;29.27;;;;;;;;;;5024830;28;20823;-73
2022/12/14 14:23:51;;;;;;;42.85;29.58;;;;;;;;;;5019217;28;20060;-73
2022/12/14 14:26:17;;;;;;;49.80;33.30;;;;;;;;;;5017649;28;20046;-73
2022/12/14 14:28:44;;;;;;;47.75;31.15;;;;;;;;;;5021571;28;20037;-73
2022/12/14 14:31:11;;;;;;;48.15;29.52;;;;;;;;;;5024499;28;20025;-73
2022/12/14 14:33:43;;;;;;;47.45;31.05;;;;;;;;;;5025131;28;20400;-73
2022/12/14 14:36:10;;;;;;;44.60;29.50;;;;;;;;;;5022992;28;20752;-73
2022/12/14 14:38:37;;;;;;;43.33;26.15;;;;;;;;;;5021121;28;20125;-72
2022/12/14 14:41:11;;;;;;;47.30;30.08;;;;;;;;;;5020925;28;20071;-73
2022/12/14 14:43:46;;;;;;;36.97;23.08;;;;;;;;;;5023601;28;20037;-73